Time;durP1;ratioP1;P1;durP2;ratioP2;P2;SDS_P1;SDS_P2;PMS_P1;PMS_P2;Temp;Humidity;BMP_temperature;BMP_pressure;BME280_temperature;BME280_humidity;BME280_pressure;Samples;Min_cycle;Max_cycle;Signal;HPM_P1;HPM_P2
2022/10/08 15:15:49;;;;;;;;;;;;;;;19.35;79.74;97297.28;4228878;27;10387;-73
2022/10/08 15:17:55;;;;;;;;;;;;;;;19.63;79.04;97299.22;4228019;28;5707;-74
2022/10/08 15:19:58;;;;;;;;;;;;;;;19.85;78.24;97296.69;4230395;27;5594;-75
2022/10/08 15:22:01;;;;;;;;;;;;;;;20.02;78.02;97297.53;4243701;27;5689;-74
2022/10/08 15:24:04;;;;;;;;;;;;;;;20.15;77.62;97291.88;4227186;27;5660;-75
2022/10/08 15:26:10;;;;;;;;;;;;;;;20.26;77.12;97284.81;4222689;27;5679;-74
2022/10/08 15:28:13;;;;;;;;;;;;;;;20.34;76.75;97282.53;4231970;27;5732;-74
2022/10/08 15:30:16;;;;;;;;;;;;;;;20.40;76.79;97286.13;4222018;27;5764;-74
2022/10/08 15:32:21;;;;;;;;;;;;;;;20.45;76.29;97282.75;4221336;28;5692;-74
2022/10/08 15:34:23;;;;;;;;;;;;;;;20.49;76.42;97282.00;4220516;27;5743;-69
2022/10/08 15:36:29;;;;;;;;;;;;;;;20.53;76.26;97282.34;4223795;28;5826;-71
2022/10/08 15:38:31;;;;;;;;;;;;;;;20.57;75.95;97286.16;4222084;28;5771;-67
2022/10/08 15:40:34;;;;;;;;;;;;;;;20.60;75.67;97283.78;4215710;27;6002;-72
2022/10/08 15:42:37;;;;;;;;;;;;;;;20.64;75.82;97286.81;4219178;28;5892;-72
2022/10/08 15:44:43;;;;;;;;;;;;;;;20.67;75.62;97289.00;4221609;28;5694;-72
2022/10/08 15:46:46;;;;;;;;;;;;;;;20.70;75.45;97293.88;4218660;28;5106;-72
2022/10/08 15:48:55;;;;;;;;;;;;;;;20.72;75.17;97283.69;4218469;28;5794;-73
2022/10/08 15:50:59;;;;;;;;;;;;;;;20.67;74.92;97282.81;4222808;28;5695;-74
2022/10/08 15:53:02;;;;;;;;;;;;;;;20.68;74.61;97292.50;4219553;28;6573;-71
2022/10/08 15:55:05;;;;;;;;;;;;;;;20.61;74.57;97287.28;4224748;27;5939;-72
2022/10/08 15:57:10;;;;;;;;;;;;;;;20.54;74.24;97286.66;4222890;28;5604;-71
2022/10/08 15:59:13;;;;;;;;;;;;;;;20.47;74.27;97281.44;4222250;28;5661;-70
2022/10/08 16:01:17;;;;;;;;;;;;;;;20.47;73.69;97288.69;4225682;27;5097;-67
2022/10/08 16:03:21;;;;;;;;;;;;;;;20.45;73.22;97286.25;4226823;28;6302;-69
2022/10/08 16:05:25;;;;;;;;;;;;;;;20.42;73.16;97280.53;4224435;28;6293;-69
2022/10/08 16:07:28;;;;;;;;;;;;;;;20.42;73.00;97288.56;4225268;28;5609;-67
2022/10/08 16:09:30;;;;;;;;;;;;;;;20.43;72.59;97282.19;4223394;28;5955;-67
2022/10/08 16:11:35;;;;;;;;;;;;;;;20.45;72.35;97285.44;4223509;28;5517;-71
2022/10/08 16:13:38;;;;;;;;;;;;;;;20.44;72.20;97286.47;4209706;28;5643;-69
2022/10/08 16:15:40;;;;;;;;;;;;;;;20.41;72.03;97289.63;4216831;28;5718;-69
2022/10/08 16:17:45;;;;;;;;;;;;;;;20.34;71.50;97285.22;4214260;28;6665;-70
2022/10/08 16:19:48;;;;;;;;;;;;;;;20.35;71.29;97286.84;4218124;28;5672;-70
2022/10/08 16:21:54;;;;;;;;;;;;;;;20.40;71.30;97293.38;4215554;28;5716;-71
2022/10/08 16:23:58;;;;;;;;;;;;;;;20.39;70.65;97291.75;4215708;28;5617;-70
2022/10/08 16:26:01;;;;;;;;;;;;;;;20.38;70.06;97290.09;4212863;28;5620;-70
2022/10/08 16:28:04;;;;;;;;;;;;;;;20.26;70.08;97288.31;4214208;28;5798;-71
2022/10/08 16:30:08;;;;;;;;;;;;;;;20.21;69.92;97284.72;4213772;28;5823;-70
2022/10/08 16:32:11;;;;;;;;;;;;;;;20.24;70.05;97285.06;4213676;28;6247;-69
2022/10/08 16:34:16;;;;;;;;;;;;;;;20.29;69.64;97287.84;4212936;28;5553;-69
2022/10/08 16:36:19;;;;;;;;;;;;;;;20.32;69.38;97292.72;4215797;28;5661;-70
2022/10/08 16:38:24;;;;;;;;;;;;;;;20.35;69.39;97286.84;4213500;28;5513;-69
2022/10/08 16:40:26;;;;;;;;;;;;;;;20.40;68.99;97298.75;4211599;28;5521;-69
2022/10/08 16:42:29;;;;;;;;;;;;;;;20.41;68.87;97295.81;4213799;28;5719;-69
2022/10/08 16:44:32;;;;;;;;;;;;;;;20.42;68.97;97300.16;4217746;28;5699;-69
2022/10/08 16:46:38;;;;;;;;;;;;;;;20.42;68.76;97300.16;4196323;28;5109;-71
2022/10/08 16:48:41;;;;;;;;;;;;;;;20.41;68.46;97300.38;4214195;28;5609;-69
2022/10/08 16:50:43;;;;;;;;;;;;;;;20.41;68.30;97295.81;4206865;28;5509;-68
2022/10/08 16:52:46;;;;;;;;;;;;;;;20.41;68.35;97297.69;4208257;28;5612;-67
2022/10/08 16:54:52;;;;;;;;;;;;;;;20.37;68.16;97294.66;4208330;28;5790;-69
2022/10/08 16:56:57;;;;;;;;;;;;;;;20.36;68.47;97296.53;4210970;28;5806;-67
2022/10/08 16:59:02;;;;;;;;;;;;;;;20.35;68.48;97305.66;4214269;28;5666;-70
2022/10/08 17:01:07;;;;;;;;;;;;;;;20.36;68.36;97301.09;4196675;28;5755;-67
2022/10/08 17:03:09;;;;;;;;;;;;;;;20.36;68.36;97309.94;4209526;28;5247;-68
2022/10/08 17:05:12;;;;;;;;;;;;;;;20.36;68.31;97299.22;4212243;28;5803;-69
2022/10/08 17:07:15;;;;;;;;;;;;;;;20.38;67.79;97312.38;4213131;28;5852;-69
2022/10/08 17:09:19;;;;;;;;;;;;;;;20.38;68.01;97311.59;4213116;28;5697;-68
2022/10/08 17:11:23;;;;;;;;;;;;;;;20.37;67.92;97316.13;4211811;28;5687;-69
2022/10/08 17:13:26;;;;;;;;;;;;;;;20.33;67.58;97313.13;4213552;28;5912;-70
2022/10/08 17:15:29;;;;;;;;;;;;;;;20.32;67.76;97311.50;4216196;28;5665;-69
2022/10/08 17:17:31;;;;;;;;;;;;;;;20.31;67.90;97309.06;4207070;28;5730;-68
2022/10/08 17:19:36;;;;;;;;;;;;;;;20.30;67.78;97321.69;4210068;28;5613;-69
2022/10/08 17:21:39;;;;;;;;;;;;;;;20.28;67.82;97310.38;4207373;28;5616;-68
2022/10/08 17:23:42;;;;;;;;;;;;;;;20.27;67.72;97310.59;4209712;28;5723;-69
2022/10/08 17:25:45;;;;;;;;;;;;;;;20.26;67.30;97303.59;4212133;28;5691;-69
2022/10/08 17:27:50;;;;;;;;;;;;;;;20.24;67.53;97317.25;4215907;28;5660;-69
2022/10/08 17:29:52;;;;;;;;;;;;;;;20.23;67.44;97322.88;4206018;28;5711;-68
2022/10/08 17:31:55;;;;;;;;;;;;;;;20.24;67.08;97321.81;4216560;28;5768;-68
2022/10/08 17:33:58;;;;;;;;;;;;;;;20.21;67.39;97317.75;4215810;28;5901;-70
2022/10/08 17:36:02;;;;;;;;;;;;;;;20.23;67.53;97330.94;4213700;28;5872;-69
2022/10/08 17:38:05;;;;;;;;;;;;;;;20.21;67.02;97327.69;4212799;28;5809;-68
2022/10/08 17:40:09;;;;;;;;;;;;;;;20.19;67.39;97324.44;4213871;28;5687;-69
2022/10/08 17:42:12;;;;;;;;;;;;;;;20.16;66.97;97325.72;4201334;28;5739;-69
2022/10/08 17:44:16;;;;;;;;;;;;;;;20.16;67.11;97325.72;4210997;28;5789;-68
2022/10/08 17:46:21;;;;;;;;;;;;;;;20.15;66.85;97340.19;4208912;28;5636;-68
2022/10/08 17:48:24;;;;;;;;;;;;;;;20.11;66.73;97330.19;4212149;28;5525;-68
2022/10/08 17:50:27;;;;;;;;;;;;;;;20.09;66.35;97333.09;4212477;28;5837;-68
2022/10/08 17:52:30;;;;;;;;;;;;;;;20.07;66.09;97335.22;4201770;28;6140;-68
2022/10/08 17:54:33;;;;;;;;;;;;;;;20.04;66.07;97330.31;4213432;28;5688;-69
2022/10/08 17:56:35;;;;;;;;;;;;;;;20.01;66.06;97338.84;4206211;28;7884;-68
2022/10/08 17:58:38;;;;;;;;;;;;;;;19.99;65.82;97332.91;4210499;28;5605;-73
2022/10/08 18:00:43;;;;;;;;;;;;;;;19.92;65.13;97334.91;4210907;28;5700;-75
2022/10/08 18:02:46;;;;;;;;;;;;;;;19.90;64.94;97339.72;4209210;28;5790;-71
2022/10/08 18:04:49;;;;;;;;;;;;;;;19.90;64.93;97337.84;4222693;28;5684;-69
2022/10/08 18:06:54;;;;;;;;;;;;;;;19.82;64.29;97330.19;4214861;28;5684;-74
2022/10/08 18:09:06;;;;;;;;;;;;;;;19.79;64.21;97338.69;4197585;28;5639;-72
2022/10/08 18:11:10;;;;;;;;;;;;;;;19.77;64.36;97336.25;4206922;28;5613;-72
2022/10/08 18:13:14;;;;;;;;;;;;;;;19.79;63.77;97336.00;4209064;28;5856;-70
2022/10/08 18:15:19;;;;;;;;;;;;;;;19.81;63.53;97338.44;4214531;28;6294;-72
2022/10/08 18:17:23;;;;;;;;;;;;;;;19.82;63.22;97340.94;4214531;28;5625;-71
2022/10/08 18:19:26;;;;;;;;;;;;;;;19.80;62.78;97334.16;4212328;28;5676;-76
2022/10/08 18:21:29;;;;;;;;;;;;;;;19.71;62.12;97334.53;4209176;28;5725;-66
2022/10/08 18:23:34;;;;;;;;;;;;;;;19.61;62.10;97333.53;4204301;28;5858;-74
2022/10/08 18:25:37;;;;;;;;;;;;;;;19.58;61.92;97342.84;4209804;28;5620;-74
2022/10/08 18:27:40;;;;;;;;;;;;;;;19.57;61.75;97338.53;4216389;28;5704;-78
2022/10/08 18:29:43;;;;;;;;;;;;;;;19.58;61.67;97340.16;4212607;28;5617;-78
2022/10/08 18:31:46;;;;;;;;;;;;;;;19.61;61.53;97345.06;4215967;28;6709;-79
2022/10/08 18:33:54;;;;;;;;;;;;;;;19.65;61.26;97361.47;4213735;28;5665;-84
2022/10/08 18:35:57;;;;;;;;;;;;;;;19.69;61.32;97350.03;4208256;28;5637;-74
2022/10/08 18:38:00;;;;;;;;;;;;;;;19.69;61.18;97343.84;4214609;28;5725;-78
2022/10/08 18:40:03;;;;;;;;;;;;;;;19.70;60.79;97350.84;4209481;28;5765;-76
2022/10/08 18:42:06;;;;;;;;;;;;;;;19.70;60.83;97350.84;4208770;28;5616;-78
2022/10/08 18:44:12;;;;;;;;;;;;;;;19.69;60.56;97335.81;4196851;28;5695;-79
2022/10/08 18:46:17;;;;;;;;;;;;;;;19.62;60.20;97341.31;4218602;28;5804;-76
2022/10/08 18:48:20;;;;;;;;;;;;;;;19.64;60.46;97341.09;4209875;28;5620;-79
2022/10/08 18:50:24;;;;;;;;;;;;;;;19.67;60.00;97344.09;4216837;28;5760;-80
2022/10/08 18:52:27;;;;;;;;;;;;;;;19.66;59.97;97339.78;4217534;28;5641;-79
2022/10/08 18:54:30;;;;;;;;;;;;;;;19.66;60.03;97345.16;4224265;28;5613;-81
2022/10/08 18:56:37;;;;;;;;;;;;;;;19.66;59.90;97341.66;4215336;28;5604;-85
2022/10/08 18:58:40;;;;;;;;;;;;;;;19.63;59.84;97348.31;4222652;28;5601;-88
2022/10/08 19:00:45;;;;;;;;;;;;;;;19.66;59.85;97349.69;4218979;28;5853;-76
2022/10/08 19:02:48;;;;;;;;;;;;;;;19.62;59.25;97348.56;4196636;28;5745;-85
2022/10/08 19:04:51;;;;;;;;;;;;;;;19.63;59.35;97350.19;4219261;28;5636;-82
2022/10/08 19:06:56;;;;;;;;;;;;;;;19.65;59.14;97346.22;4208745;28;5621;-88
2022/10/08 19:08:59;;;;;;;;;;;;;;;19.64;59.31;97335.72;4213195;28;5842;-82
2022/10/08 19:11:08;;;;;;;;;;;;;;;19.57;59.00;97341.19;4208591;28;5993;-81
2022/10/08 19:13:12;;;;;;;;;;;;;;;19.56;58.61;97350.31;4213227;28;5813;-81
2022/10/08 19:15:15;;;;;;;;;;;;;;;19.49;58.54;97341.56;4215717;28;5620;-80
2022/10/08 19:17:17;;;;;;;;;;;;;;;19.48;58.76;97338.06;4224425;28;5608;-80
2022/10/08 19:19:21;;;;;;;;;;;;;;;19.47;58.33;97349.81;4225352;28;5610;-72
2022/10/08 19:21:25;;;;;;;;;;;;;;;19.42;58.49;97340.88;4216064;28;5716;-74
2022/10/08 19:23:31;;;;;;;;;;;;;;;19.42;58.77;97340.88;4221126;28;5667;-82
2022/10/08 19:25:35;;;;;;;;;;;;;;;19.44;58.58;97341.44;4226433;28;5784;-78
2022/10/08 19:27:38;;;;;;;;;;;;;;;19.46;58.59;97342.81;4208910;28;5822;-79
2022/10/08 19:29:40;;;;;;;;;;;;;;;19.45;58.30;97335.03;4218898;28;5712;-78
2022/10/08 19:31:46;;;;;;;;;;;;;;;19.43;58.65;97340.63;4214694;28;5694;-89
2022/10/08 19:33:49;;;;;;;;;;;;;;;19.45;58.37;97340.38;4223289;28;5668;-83
2022/10/08 19:35:52;;;;;;;;;;;;;;;19.50;58.50;97348.56;4201254;28;5640;-77
2022/10/08 19:37:55;;;;;;;;;;;;;;;19.50;57.92;97343.19;4203402;28;5621;-80
2022/10/08 19:39:59;;;;;;;;;;;;;;;19.51;57.92;97350.19;4209038;28;5623;-83
2022/10/08 19:42:02;;;;;;;;;;;;;;;19.43;57.80;97340.63;4214026;28;5780;-72
2022/10/08 19:44:05;;;;;;;;;;;;;;;19.39;58.12;97344.03;4214112;28;5358;-73
2022/10/08 19:46:08;;;;;;;;;;;;;;;19.33;57.63;97342.28;4208883;28;7860;-74
2022/10/08 19:48:11;;;;;;;;;;;;;;;19.28;57.77;97342.19;4211732;28;6507;-78
2022/10/08 19:50:14;;;;;;;;;;;;;;;19.30;57.88;97348.13;4218394;28;5720;-78
2022/10/08 19:52:17;;;;;;;;;;;;;;;19.27;57.79;97344.03;4217608;28;5609;-80
2022/10/08 19:54:20;;;;;;;;;;;;;;;19.23;57.98;97340.19;4205774;28;5619;-77
2022/10/08 19:56:25;;;;;;;;;;;;;;;19.29;57.77;97346.47;4220520;28;5601;-87
2022/10/08 19:58:28;;;;;;;;;;;;;;;19.29;57.58;97346.47;4217515;28;5609;-74
2022/10/08 20:00:30;;;;;;;;;;;;;;;19.24;57.64;97344.50;4211263;28;6590;-74
2022/10/08 20:02:33;;;;;;;;;;;;;;;19.22;58.12;97345.78;4205743;28;5636;-74
2022/10/08 20:04:36;;;;;;;;;;;;;;;19.22;57.83;97341.22;4212494;28;5635;-75
2022/10/08 20:06:41;;;;;;;;;;;;;;;19.23;57.63;97340.19;4207362;28;5687;-76
2022/10/08 20:08:47;;;;;;;;;;;;;;;19.16;57.63;97343.00;4216048;28;5617;-79
2022/10/08 20:10:50;;;;;;;;;;;;;;;19.14;57.83;97342.44;4220984;28;5605;-78
2022/10/08 20:12:54;;;;;;;;;;;;;;;19.10;57.62;97332.38;4206796;28;5608;-81
2022/10/08 20:14:57;;;;;;;;;;;;;;;19.05;57.86;97340.31;4212229;28;5638;-78
2022/10/08 20:17:00;;;;;;;;;;;;;;;19.04;58.03;97339.50;4218231;28;5604;-77
2022/10/08 20:19:08;;;;;;;;;;;;;;;19.04;57.65;97342.19;4217428;28;5107;-78
2022/10/08 20:21:12;;;;;;;;;;;;;;;19.02;57.77;97341.59;4218253;28;7703;-77
2022/10/08 20:23:15;;;;;;;;;;;;;;;18.99;57.72;97333.22;4217037;28;5785;-78
2022/10/08 20:25:19;;;;;;;;;;;;;;;19.00;57.44;97330.28;4213208;28;5695;-79
2022/10/08 20:27:22;;;;;;;;;;;;;;;18.98;57.30;97332.41;4209521;28;5694;-79
2022/10/08 20:29:27;;;;;;;;;;;;;;;18.97;57.46;97321.91;4215287;28;5724;-82
2022/10/08 20:31:35;;;;;;;;;;;;;;;18.98;57.07;97329.72;4222887;28;5616;-82
2022/10/08 20:33:39;;;;;;;;;;;;;;;18.97;57.40;97333.44;4210322;28;5702;-80
2022/10/08 20:35:43;;;;;;;;;;;;;;;18.98;57.21;97336.94;4218895;28;5715;-79
2022/10/08 20:37:46;;;;;;;;;;;;;;;18.94;57.22;97339.28;4212707;28;5633;-80
2022/10/08 20:39:49;;;;;;;;;;;;;;;18.88;57.36;97337.50;4215251;28;5627;-77
2022/10/08 20:41:52;;;;;;;;;;;;;;;18.94;57.10;97336.59;4223159;28;5626;-75
2022/10/08 20:43:59;;;;;;;;;;;;;;;18.99;57.04;97336.69;4221382;28;6364;-75
2022/10/08 20:46:05;;;;;;;;;;;;;;;19.01;56.72;97333.78;4225876;28;6525;-78
2022/10/08 20:48:07;;;;;;;;;;;;;;;18.97;56.73;97330.75;4214532;28;5845;-77
2022/10/08 20:50:10;;;;;;;;;;;;;;;18.99;56.73;97339.38;4215798;28;5621;-72
2022/10/08 20:52:13;;;;;;;;;;;;;;;19.00;56.85;97349.03;4211571;28;5682;-77
2022/10/08 20:54:17;;;;;;;;;;;;;;;18.99;56.55;97347.41;4207023;28;5766;-74
2022/10/08 20:56:20;;;;;;;;;;;;;;;19.05;56.91;97343.81;4224900;28;5766;-86
2022/10/08 20:58:23;;;;;;;;;;;;;;;19.09;56.54;97344.97;4220153;28;5628;-87
2022/10/08 21:00:26;;;;;;;;;;;;;;;19.10;56.22;97349.28;4209776;28;5605;-72
2022/10/08 21:02:30;;;;;;;;;;;;;;;19.11;56.35;97350.09;4220746;28;5586;-72
2022/10/08 21:04:33;;;;;;;;;;;;;;;19.13;56.48;97348.00;4220811;28;5406;-72
2022/10/08 21:06:38;;;;;;;;;;;;;;;19.13;56.15;97348.00;4215369;28;7669;-76
2022/10/08 21:08:43;;;;;;;;;;;;;;;19.14;56.23;97345.09;4225646;28;5594;-82
2022/10/08 21:10:46;;;;;;;;;;;;;;;19.17;56.18;97352.66;4209957;28;5616;-77
2022/10/08 21:12:48;;;;;;;;;;;;;;;19.10;56.03;97343.09;4212946;28;5610;-77
2022/10/08 21:14:52;;;;;;;;;;;;;;;19.01;56.15;97339.97;4217613;28;5609;-78
2022/10/08 21:16:55;;;;;;;;;;;;;;;19.03;56.19;97343.25;4207790;28;5699;-75
2022/10/08 21:19:01;;;;;;;;;;;;;;;19.06;55.76;97344.63;4207296;28;5788;-83
2022/10/08 21:21:06;;;;;;;;;;;;;;;19.01;55.68;97349.84;4212844;28;5938;-80
2022/10/08 21:23:09;;;;;;;;;;;;;;;18.93;55.61;97348.38;4216436;28;5676;-81
